Relevés horaires Beauvechain (Belgique)


Relevés horaires à Beauvechain - Mercredi 28 Juill. 2021
Heure UTC1 Température [°C] Vent [km/h] Hum. [%] Pres.4 [hPa] Visi. [Km] Nébu. [octa] Préc.5 [mm] Cond.
2m. Res. Ros. Dir.2 Vit. Moy. Raf.3
23:00 14.8 14.7 13.3 SSO 7.4 -- 9.3 91 1011.2(-0.2/3h) 19 -- -- NA
22:00 15.6 15.6 13.1 SSO 7.4 -- 9.3 85 1011.3(0.4/3h) 20 -- -- NA
21:00 15.9 15.9 12.8 OSO 5.6 -- 13.0 82 1011.6(0.4/3h) 20 -- -- NA
20:00 17.0 17.0 12.5 O 7.4 -- 11.1 75 1011.3(0.1/3h) 9 -- -- Il y a de la pluie faible et continue à la station au moment de l'observation
19:00 18.6 18.6 11.6 SSO 7.4 -- 13.0 64 1010.7(-0.2/3h) 20 -- -- --
18:00 19.3 19.3 11.7 SO 7.4 -- 22.2 61 1010.8(0.0/3h) 20 -- -- NA
17:00 19.6 19.6 11.7 SO 11.1 -- 18.5 60 1011.1(-0.1/3h) 20 -- -- --
16:00 19.2 19.2 11.8 OSO 13.0 -- 22.2 62 1011.1(0.0/3h) 20 -- -- --
15:00 19.7 19.7 13.0 OSO 11.1 -- 22.2 65 1011(0.4/3h) 20 4/8 -- NA
14:00 18.9 18.9 12.5 OSO 9.3 -- 20.4 66 1011.2(0.7/3h) 20 5/8 -- --
13:00 20.1 20.1 11.8 OSO 9.3 -- 22.2 59 1011(0.3/3h) 20 5/8 -- --
12:00 20.6 20.6 11.8 SO 14.8 -- 24.1 57 1010.5(0.3/3h) 20 3/8 -- --
11:00 19.3 19.3 11.3 SO 14.8 -- 24.1 60 1010.5(0.1/3h) 20 1/8 -- --
10:00 19.4 19.4 11.4 SO 14.8 -- 22.2 60 1010.6(0.3/3h) 20 1/8 -- --
09:00 18.6 18.6 11.7 SO 13.0 -- 24.1 64 1010.2(0.1/3h) 20 1/8 -- --
08:00 18.0 17.9 11.9 SO 13.0 -- 24.1 68 1010.3(0.3/3h) 20 2/8 -- --
07:00 16.6 16.2 12.3 SO 13.0 -- 18.5 76 1010.3(0.6/3h) 20 2/8 -- --
06:00 16.5 16.5 14.1 SO 7.4 -- 14.8 86 1010.2(0.5/3h) 20 5/8 -- --
05:00 15.9 15.8 14.0 SO 9.3 -- 14.8 88 1010.1(0.3/3h) 20 6/8 -- --
04:00 16.5 16.5 14.7 SO 7.4 -- 11.1 89 1009.7(-0.4/3h) 20 -- -- --
03:00 16.4 16.4 15.0 S 5.6 -- 11.1 91 1009.7(-0.8/3h) 18 -- -- --
02:00 15.6 15.6 14.5 SSO 5.6 -- 9.3 93 1009.7(-1.0/3h) 15 -- -- --
01:00 15.8 15.8 14.5 SSO 5.6 -- 11.1 92 1010.1(-0.8/3h) 19 -- -- --
00:00 16.2 16.2 14.3 S 7.4 -- 18.5 89 1010.6(-0.3/3h) 20 -- -- --

1 Coordinated Universal Time. Actuellement il est 09:00 locale et 07:00 UTC.

2 Le vent souffle depuis la direction indiquée vers la direction oposée.

3 Les rafales max. sont disponible 40 min après l'heure du relevé.

4 Pour les stations d'altitude (plus de 600m) le géopotentiel du niveau le plus proche de la pression obligatoire est indiqué.

5 Les stations disposant d'un diffuseur peuvent indiquer "trace". Cela signifie que des précipitations ont touchés le sol mais que la quantité est inférieure à 0.1 mm.

Récapitulatif de la journée
Température [°C] Vent [km/h] Ensoleillement4 [h] Precipitations totale5 [mm] Pression [Hpa]
Min1 Max.2 Moy.3 Max. Min Max.
15.5 21.0 0 24.1 0 h 0 min 0 1009.7 1011.6

1 Température minimale relevée entre 18:00 UTC la veille et 18:00 UTC le jour donné.

2 Température maximale relevée entre 06:00 UTC le jour donné et 06:00 UTC le lendemain.

3 Vent moyen de la journée basé sur les relevés horaires.

4 Ensoleillement en heures relevé entre 06:00 UTC la veille et 06:00 UTC le jour donné.

5 Précipitations totales tombées entre 06:00 UTC la jour donné et 06:00 UTC le lendemain.

Graphiques horaires